Terminal Aerodrome Forecast
Issued by NWS Charleston, WV

Home | Current Version | Previous Version | Text Only | Print | Product List | Glossary On
Versions: 1 2 3 4 5 6 7 8 9 10 11 12 13 14 15 16 17 18 19 20 21
000
FTUS41 KRLX 070800 AAA
TAFCRW
TAF AMD
KCRW 070800Z 0708/0806 00000KT P6SM SKC
     FM070900 00000KT 3SM BR FEW100
     FM071200 00000KT 6SM BR FEW100
     FM071230 00000KT P6SM FEW100
     FM071600 07004KT P6SM SCT070=

USA.gov is the U.S. government's official web portal to all federal, state and local government web resources and services.